sensor_id;sensor_type;location;lat;lon;timestamp;P1;durP1;ratioP1;P2;durP2;ratioP2
33902;SDS011;20194;50.950;5.346;2023-04-24T00:00:00;16.10;;;7.45;;
33902;SDS011;20194;50.950;5.346;2023-04-24T00:02:28;15.18;;;6.97;;
33902;SDS011;20194;50.950;5.346;2023-04-24T00:04:53;14.38;;;7.38;;
33902;SDS011;20194;50.950;5.346;2023-04-24T00:07:20;12.80;;;7.60;;
33902;SDS011;20194;50.950;5.346;2023-04-24T00:09:45;24.23;;;9.30;;
33902;SDS011;20194;50.950;5.346;2023-04-24T00:12:11;15.25;;;8.55;;
33902;SDS011;20194;50.950;5.346;2023-04-24T00:14:37;21.40;;;10.15;;
33902;SDS011;20194;50.950;5.346;2023-04-24T00:17:03;19.02;;;8.70;;
33902;SDS011;20194;50.950;5.346;2023-04-24T00:19:29;22.00;;;9.43;;
33902;SDS011;20194;50.950;5.346;2023-04-24T00:21:55;22.77;;;9.45;;
33902;SDS011;20194;50.950;5.346;2023-04-24T00:24:20;23.30;;;10.35;;
33902;SDS011;20194;50.950;5.346;2023-04-24T00:26:46;21.05;;;9.15;;
33902;SDS011;20194;50.950;5.346;2023-04-24T00:29:12;22.48;;;9.98;;
33902;SDS011;20194;50.950;5.346;2023-04-24T00:31:38;19.83;;;10.15;;
33902;SDS011;20194;50.950;5.346;2023-04-24T00:34:04;21.25;;;10.38;;
33902;SDS011;20194;50.950;5.346;2023-04-24T00:36:30;23.83;;;9.25;;
33902;SDS011;20194;50.950;5.346;2023-04-24T00:38:57;19.95;;;9.40;;
33902;SDS011;20194;50.950;5.346;2023-04-24T00:41:23;21.20;;;10.43;;
33902;SDS011;20194;50.950;5.346;2023-04-24T00:43:50;19.65;;;9.88;;
33902;SDS011;20194;50.950;5.346;2023-04-24T00:46:17;21.15;;;11.25;;
33902;SDS011;20194;50.950;5.346;2023-04-24T00:48:42;24.08;;;12.13;;
33902;SDS011;20194;50.950;5.346;2023-04-24T00:51:09;20.95;;;10.65;;
33902;SDS011;20194;50.950;5.346;2023-04-24T00:53:35;24.70;;;11.73;;
33902;SDS011;20194;50.950;5.346;2023-04-24T00:56:01;26.80;;;11.07;;
33902;SDS011;20194;50.950;5.346;2023-04-24T00:58:27;27.38;;;12.80;;
33902;SDS011;20194;50.950;5.346;2023-04-24T01:00:54;24.25;;;12.52;;
33902;SDS011;20194;50.950;5.346;2023-04-24T01:03:22;27.13;;;12.30;;
33902;SDS011;20194;50.950;5.346;2023-04-24T01:05:51;27.08;;;12.73;;
33902;SDS011;20194;50.950;5.346;2023-04-24T01:08:19;18.20;;;10.45;;
33902;SDS011;20194;50.950;5.346;2023-04-24T01:10:48;28.00;;;12.27;;
33902;SDS011;20194;50.950;5.346;2023-04-24T01:13:17;24.65;;;11.20;;
33902;SDS011;20194;50.950;5.346;2023-04-24T01:15:44;26.65;;;12.73;;
33902;SDS011;20194;50.950;5.346;2023-04-24T01:18:10;21.17;;;11.75;;
33902;SDS011;20194;50.950;5.346;2023-04-24T01:20:36;29.67;;;10.77;;
33902;SDS011;20194;50.950;5.346;2023-04-24T01:23:05;19.33;;;10.30;;
33902;SDS011;20194;50.950;5.346;2023-04-24T01:25:31;29.67;;;12.65;;
33902;SDS011;20194;50.950;5.346;2023-04-24T01:27:58;23.10;;;11.90;;
33902;SDS011;20194;50.950;5.346;2023-04-24T01:30:25;28.58;;;13.45;;
33902;SDS011;20194;50.950;5.346;2023-04-24T01:32:51;25.88;;;12.07;;
33902;SDS011;20194;50.950;5.346;2023-04-24T01:35:17;23.30;;;10.25;;
33902;SDS011;20194;50.950;5.346;2023-04-24T01:37:43;41.58;;;14.13;;
33902;SDS011;20194;50.950;5.346;2023-04-24T01:40:09;27.50;;;11.98;;
33902;SDS011;20194;50.950;5.346;2023-04-24T01:42:35;23.33;;;11.85;;
33902;SDS011;20194;50.950;5.346;2023-04-24T01:45:02;30.52;;;13.35;;
33902;SDS011;20194;50.950;5.346;2023-04-24T01:47:29;31.63;;;12.27;;
33902;SDS011;20194;50.950;5.346;2023-04-24T01:49:56;20.23;;;10.80;;
33902;SDS011;20194;50.950;5.346;2023-04-24T01:52:21;31.65;;;11.82;;
33902;SDS011;20194;50.950;5.346;2023-04-24T01:54:47;24.65;;;12.00;;
33902;SDS011;20194;50.950;5.346;2023-04-24T01:57:13;25.92;;;11.43;;
33902;SDS011;20194;50.950;5.346;2023-04-24T01:59:41;28.35;;;11.98;;
33902;SDS011;20194;50.950;5.346;2023-04-24T02:02:07;26.80;;;12.23;;
33902;SDS011;20194;50.950;5.346;2023-04-24T02:04:32;26.65;;;11.23;;
33902;SDS011;20194;50.950;5.346;2023-04-24T02:06:58;28.45;;;12.30;;
33902;SDS011;20194;50.950;5.346;2023-04-24T02:09:24;23.58;;;10.57;;
33902;SDS011;20194;50.950;5.346;2023-04-24T02:11:50;26.30;;;12.60;;
33902;SDS011;20194;50.950;5.346;2023-04-24T02:14:16;26.17;;;12.77;;
33902;SDS011;20194;50.950;5.346;2023-04-24T02:16:41;27.35;;;11.75;;
33902;SDS011;20194;50.950;5.346;2023-04-24T02:19:08;28.17;;;13.02;;
33902;SDS011;20194;50.950;5.346;2023-04-24T02:21:34;22.77;;;12.93;;
33902;SDS011;20194;50.950;5.346;2023-04-24T02:24:00;25.63;;;12.90;;
33902;SDS011;20194;50.950;5.346;2023-04-24T02:26:26;28.83;;;12.02;;
33902;SDS011;20194;50.950;5.346;2023-04-24T02:28:52;29.55;;;12.75;;
33902;SDS011;20194;50.950;5.346;2023-04-24T02:31:17;26.63;;;11.32;;
33902;SDS011;20194;50.950;5.346;2023-04-24T02:33:43;20.42;;;12.45;;
33902;SDS011;20194;50.950;5.346;2023-04-24T02:36:09;33.17;;;12.85;;
33902;SDS011;20194;50.950;5.346;2023-04-24T02:38:34;22.50;;;11.00;;
33902;SDS011;20194;50.950;5.346;2023-04-24T02:41:00;25.20;;;11.85;;
33902;SDS011;20194;50.950;5.346;2023-04-24T02:43:27;22.20;;;11.35;;
33902;SDS011;20194;50.950;5.346;2023-04-24T02:45:53;25.77;;;11.43;;
33902;SDS011;20194;50.950;5.346;2023-04-24T02:48:19;27.80;;;12.85;;
33902;SDS011;20194;50.950;5.346;2023-04-24T02:50:46;20.55;;;11.00;;
33902;SDS011;20194;50.950;5.346;2023-04-24T02:53:11;20.38;;;11.77;;
33902;SDS011;20194;50.950;5.346;2023-04-24T02:55:37;17.98;;;10.70;;
33902;SDS011;20194;50.950;5.346;2023-04-24T02:58:03;24.48;;;10.70;;
33902;SDS011;20194;50.950;5.346;2023-04-24T03:00:28;22.55;;;10.68;;
33902;SDS011;20194;50.950;5.346;2023-04-24T03:02:54;24.75;;;11.07;;
33902;SDS011;20194;50.950;5.346;2023-04-24T03:05:20;24.27;;;10.70;;
33902;SDS011;20194;50.950;5.346;2023-04-24T03:07:46;19.83;;;9.77;;
33902;SDS011;20194;50.950;5.346;2023-04-24T03:10:12;21.25;;;10.95;;
33902;SDS011;20194;50.950;5.346;2023-04-24T03:12:37;20.42;;;11.25;;
33902;SDS011;20194;50.950;5.346;2023-04-24T03:15:03;21.15;;;10.10;;
33902;SDS011;20194;50.950;5.346;2023-04-24T03:17:30;14.20;;;8.45;;
33902;SDS011;20194;50.950;5.346;2023-04-24T03:19:55;20.95;;;11.65;;
33902;SDS011;20194;50.950;5.346;2023-04-24T03:22:21;19.15;;;11.85;;
33902;SDS011;20194;50.950;5.346;2023-04-24T03:24:47;24.65;;;12.77;;
33902;SDS011;20194;50.950;5.346;2023-04-24T03:27:13;29.42;;;12.32;;
33902;SDS011;20194;50.950;5.346;2023-04-24T03:29:39;22.75;;;11.18;;
33902;SDS011;20194;50.950;5.346;2023-04-24T03:32:04;20.58;;;10.82;;
33902;SDS011;20194;50.950;5.346;2023-04-24T03:34:31;22.15;;;11.68;;
33902;SDS011;20194;50.950;5.346;2023-04-24T03:36:56;18.65;;;11.10;;
33902;SDS011;20194;50.950;5.346;2023-04-24T03:39:22;22.40;;;11.25;;
33902;SDS011;20194;50.950;5.346;2023-04-24T03:41:49;20.92;;;11.00;;
33902;SDS011;20194;50.950;5.346;2023-04-24T03:44:15;22.67;;;11.75;;
33902;SDS011;20194;50.950;5.346;2023-04-24T03:46:40;18.88;;;9.90;;
33902;SDS011;20194;50.950;5.346;2023-04-24T03:49:06;21.17;;;10.57;;
33902;SDS011;20194;50.950;5.346;2023-04-24T03:51:32;21.35;;;10.68;;
33902;SDS011;20194;50.950;5.346;2023-04-24T03:53:57;25.95;;;11.38;;
33902;SDS011;20194;50.950;5.346;2023-04-24T03:56:23;19.30;;;10.38;;
33902;SDS011;20194;50.950;5.346;2023-04-24T03:58:49;22.50;;;10.93;;
33902;SDS011;20194;50.950;5.346;2023-04-24T04:01:14;16.20;;;9.02;;
33902;SDS011;20194;50.950;5.346;2023-04-24T04:03:41;21.05;;;10.35;;
33902;SDS011;20194;50.950;5.346;2023-04-24T04:06:06;15.32;;;8.05;;
33902;SDS011;20194;50.950;5.346;2023-04-24T04:08:33;27.77;;;10.43;;
33902;SDS011;20194;50.950;5.346;2023-04-24T04:10:58;24.50;;;11.15;;
33902;SDS011;20194;50.950;5.346;2023-04-24T04:13:24;19.02;;;9.38;;
33902;SDS011;20194;50.950;5.346;2023-04-24T04:15:50;20.80;;;10.48;;
33902;SDS011;20194;50.950;5.346;2023-04-24T04:18:15;23.92;;;10.52;;
33902;SDS011;20194;50.950;5.346;2023-04-24T04:20:41;17.20;;;9.75;;
33902;SDS011;20194;50.950;5.346;2023-04-24T04:23:07;21.40;;;10.52;;
33902;SDS011;20194;50.950;5.346;2023-04-24T04:25:32;16.17;;;9.23;;
33902;SDS011;20194;50.950;5.346;2023-04-24T04:27:59;19.42;;;9.30;;
33902;SDS011;20194;50.950;5.346;2023-04-24T04:30:25;14.20;;;9.15;;
33902;SDS011;20194;50.950;5.346;2023-04-24T04:32:51;18.67;;;9.90;;
33902;SDS011;20194;50.950;5.346;2023-04-24T04:35:16;14.60;;;8.88;;
33902;SDS011;20194;50.950;5.346;2023-04-24T04:37:42;15.35;;;8.88;;
33902;SDS011;20194;50.950;5.346;2023-04-24T04:40:08;11.85;;;8.32;;
33902;SDS011;20194;50.950;5.346;2023-04-24T04:42:36;14.50;;;7.45;;
33902;SDS011;20194;50.950;5.346;2023-04-24T04:45:06;15.23;;;8.52;;
33902;SDS011;20194;50.950;5.346;2023-04-24T04:47:34;16.42;;;7.57;;
33902;SDS011;20194;50.950;5.346;2023-04-24T04:50:00;12.27;;;7.93;;
33902;SDS011;20194;50.950;5.346;2023-04-24T04:52:26;16.13;;;8.60;;
33902;SDS011;20194;50.950;5.346;2023-04-24T04:54:52;18.52;;;10.07;;
33902;SDS011;20194;50.950;5.346;2023-04-24T04:57:18;16.10;;;8.85;;
33902;SDS011;20194;50.950;5.346;2023-04-24T04:59:43;19.65;;;7.88;;
33902;SDS011;20194;50.950;5.346;2023-04-24T05:02:09;15.07;;;8.15;;
33902;SDS011;20194;50.950;5.346;2023-04-24T05:04:35;15.63;;;9.02;;
33902;SDS011;20194;50.950;5.346;2023-04-24T05:07:01;14.45;;;8.05;;
33902;SDS011;20194;50.950;5.346;2023-04-24T05:09:27;9.95;;;4.90;;
33902;SDS011;20194;50.950;5.346;2023-04-24T05:11:54;14.02;;;8.23;;
33902;SDS011;20194;50.950;5.346;2023-04-24T05:14:20;10.95;;;6.65;;
33902;SDS011;20194;50.950;5.346;2023-04-24T05:16:46;10.85;;;6.75;;
33902;SDS011;20194;50.950;5.346;2023-04-24T05:19:12;18.17;;;7.30;;
33902;SDS011;20194;50.950;5.346;2023-04-24T05:21:39;9.82;;;6.10;;
33902;SDS011;20194;50.950;5.346;2023-04-24T05:24:08;11.70;;;6.75;;
33902;SDS011;20194;50.950;5.346;2023-04-24T05:26:33;12.13;;;6.57;;
33902;SDS011;20194;50.950;5.346;2023-04-24T05:29:01;12.70;;;6.90;;
33902;SDS011;20194;50.950;5.346;2023-04-24T05:31:27;13.05;;;7.07;;
33902;SDS011;20194;50.950;5.346;2023-04-24T05:33:53;14.02;;;7.15;;
33902;SDS011;20194;50.950;5.346;2023-04-24T05:36:18;16.40;;;6.40;;
33902;SDS011;20194;50.950;5.346;2023-04-24T05:38:44;16.58;;;7.20;;
33902;SDS011;20194;50.950;5.346;2023-04-24T05:41:10;13.20;;;7.30;;
33902;SDS011;20194;50.950;5.346;2023-04-24T05:43:35;8.05;;;5.10;;
33902;SDS011;20194;50.950;5.346;2023-04-24T05:46:01;8.02;;;4.30;;
33902;SDS011;20194;50.950;5.346;2023-04-24T05:48:27;8.85;;;4.32;;
33902;SDS011;20194;50.950;5.346;2023-04-24T05:50:53;8.57;;;4.22;;
33902;SDS011;20194;50.950;5.346;2023-04-24T05:53:18;9.85;;;4.72;;
33902;SDS011;20194;50.950;5.346;2023-04-24T05:55:44;7.40;;;4.57;;
33902;SDS011;20194;50.950;5.346;2023-04-24T05:58:10;8.20;;;4.43;;
33902;SDS011;20194;50.950;5.346;2023-04-24T06:00:37;7.70;;;4.78;;
33902;SDS011;20194;50.950;5.346;2023-04-24T06:03:04;9.10;;;5.20;;
33902;SDS011;20194;50.950;5.346;2023-04-24T06:05:30;11.88;;;5.53;;
33902;SDS011;20194;50.950;5.346;2023-04-24T06:07:57;9.48;;;5.07;;
33902;SDS011;20194;50.950;5.346;2023-04-24T06:10:22;13.48;;;6.95;;
33902;SDS011;20194;50.950;5.346;2023-04-24T06:12:48;9.73;;;5.75;;
33902;SDS011;20194;50.950;5.346;2023-04-24T06:15:14;9.32;;;5.05;;
33902;SDS011;20194;50.950;5.346;2023-04-24T06:17:40;12.75;;;6.85;;
33902;SDS011;20194;50.950;5.346;2023-04-24T06:20:06;10.23;;;6.53;;
33902;SDS011;20194;50.950;5.346;2023-04-24T06:22:33;17.30;;;7.38;;
33902;SDS011;20194;50.950;5.346;2023-04-24T06:24:59;19.30;;;7.55;;
33902;SDS011;20194;50.950;5.346;2023-04-24T06:27:25;17.88;;;7.00;;
33902;SDS011;20194;50.950;5.346;2023-04-24T06:29:51;18.20;;;8.75;;
33902;SDS011;20194;50.950;5.346;2023-04-24T06:32:21;13.82;;;6.40;;
33902;SDS011;20194;50.950;5.346;2023-04-24T06:34:51;17.48;;;8.07;;
33902;SDS011;20194;50.950;5.346;2023-04-24T06:37:17;13.90;;;7.38;;
33902;SDS011;20194;50.950;5.346;2023-04-24T06:39:44;11.70;;;5.75;;
33902;SDS011;20194;50.950;5.346;2023-04-24T06:42:10;11.65;;;6.80;;
33902;SDS011;20194;50.950;5.346;2023-04-24T06:44:36;13.15;;;6.40;;
33902;SDS011;20194;50.950;5.346;2023-04-24T06:47:06;13.80;;;6.45;;
33902;SDS011;20194;50.950;5.346;2023-04-24T06:49:33;14.25;;;7.03;;
33902;SDS011;20194;50.950;5.346;2023-04-24T06:51:59;12.63;;;6.25;;
33902;SDS011;20194;50.950;5.346;2023-04-24T06:54:25;15.32;;;6.93;;
33902;SDS011;20194;50.950;5.346;2023-04-24T06:56:51;19.30;;;7.82;;
33902;SDS011;20194;50.950;5.346;2023-04-24T06:59:17;13.63;;;6.78;;
33902;SDS011;20194;50.950;5.346;2023-04-24T07:01:43;14.63;;;7.18;;
33902;SDS011;20194;50.950;5.346;2023-04-24T07:04:08;14.05;;;7.63;;
33902;SDS011;20194;50.950;5.346;2023-04-24T07:06:34;16.58;;;8.68;;
33902;SDS011;20194;50.950;5.346;2023-04-24T07:09:01;18.38;;;8.23;;
33902;SDS011;20194;50.950;5.346;2023-04-24T07:11:28;16.33;;;7.82;;
33902;SDS011;20194;50.950;5.346;2023-04-24T07:13:54;19.42;;;8.00;;
33902;SDS011;20194;50.950;5.346;2023-04-24T07:16:20;15.43;;;8.20;;
33902;SDS011;20194;50.950;5.346;2023-04-24T07:18:46;19.90;;;9.13;;
33902;SDS011;20194;50.950;5.346;2023-04-24T07:21:12;17.13;;;8.90;;
33902;SDS011;20194;50.950;5.346;2023-04-24T07:23:37;16.33;;;9.70;;
33902;SDS011;20194;50.950;5.346;2023-04-24T07:26:03;23.63;;;9.73;;
33902;SDS011;20194;50.950;5.346;2023-04-24T07:28:30;22.23;;;9.75;;
33902;SDS011;20194;50.950;5.346;2023-04-24T07:30:56;19.92;;;10.02;;
33902;SDS011;20194;50.950;5.346;2023-04-24T07:33:23;19.55;;;10.75;;
33902;SDS011;20194;50.950;5.346;2023-04-24T07:35:49;21.85;;;9.70;;
33902;SDS011;20194;50.950;5.346;2023-04-24T07:38:15;22.73;;;10.25;;
33902;SDS011;20194;50.950;5.346;2023-04-24T07:40:41;19.33;;;10.48;;
33902;SDS011;20194;50.950;5.346;2023-04-24T07:43:06;19.40;;;10.15;;
33902;SDS011;20194;50.950;5.346;2023-04-24T07:45:32;20.85;;;10.40;;
33902;SDS011;20194;50.950;5.346;2023-04-24T07:48:02;22.20;;;10.68;;
33902;SDS011;20194;50.950;5.346;2023-04-24T07:50:28;25.45;;;10.98;;
33902;SDS011;20194;50.950;5.346;2023-04-24T07:52:53;20.38;;;9.25;;
33902;SDS011;20194;50.950;5.346;2023-04-24T07:55:19;18.60;;;9.27;;
33902;SDS011;20194;50.950;5.346;2023-04-24T07:57:45;18.52;;;9.55;;
33902;SDS011;20194;50.950;5.346;2023-04-24T08:00:11;14.68;;;8.27;;
33902;SDS011;20194;50.950;5.346;2023-04-24T08:02:37;16.45;;;8.82;;
33902;SDS011;20194;50.950;5.346;2023-04-24T08:05:03;24.50;;;10.35;;
33902;SDS011;20194;50.950;5.346;2023-04-24T08:07:29;17.52;;;9.52;;
33902;SDS011;20194;50.950;5.346;2023-04-24T08:09:55;19.20;;;11.32;;
33902;SDS011;20194;50.950;5.346;2023-04-24T08:12:21;26.38;;;11.85;;
33902;SDS011;20194;50.950;5.346;2023-04-24T08:14:46;24.67;;;11.25;;
33902;SDS011;20194;50.950;5.346;2023-04-24T08:17:12;24.00;;;10.00;;
33902;SDS011;20194;50.950;5.346;2023-04-24T08:19:39;19.73;;;9.25;;
33902;SDS011;20194;50.950;5.346;2023-04-24T08:22:09;26.35;;;11.07;;
33902;SDS011;20194;50.950;5.346;2023-04-24T08:24:35;20.50;;;9.27;;
33902;SDS011;20194;50.950;5.346;2023-04-24T08:27:01;19.25;;;9.13;;
33902;SDS011;20194;50.950;5.346;2023-04-24T08:29:27;21.55;;;8.10;;
33902;SDS011;20194;50.950;5.346;2023-04-24T08:31:52;23.83;;;9.93;;
33902;SDS011;20194;50.950;5.346;2023-04-24T08:34:19;18.38;;;9.88;;
33902;SDS011;20194;50.950;5.346;2023-04-24T08:36:46;19.80;;;9.25;;
33902;SDS011;20194;50.950;5.346;2023-04-24T08:39:11;24.63;;;9.45;;
33902;SDS011;20194;50.950;5.346;2023-04-24T08:41:37;21.50;;;8.77;;
33902;SDS011;20194;50.950;5.346;2023-04-24T08:44:04;22.48;;;9.23;;
33902;SDS011;20194;50.950;5.346;2023-04-24T08:46:30;16.48;;;9.50;;
33902;SDS011;20194;50.950;5.346;2023-04-24T08:48:56;24.08;;;8.40;;
33902;SDS011;20194;50.950;5.346;2023-04-24T08:51:23;14.43;;;6.55;;
33902;SDS011;20194;50.950;5.346;2023-04-24T08:53:51;19.48;;;8.57;;
33902;SDS011;20194;50.950;5.346;2023-04-24T08:56:19;20.23;;;7.45;;
33902;SDS011;20194;50.950;5.346;2023-04-24T08:58:48;16.35;;;7.40;;
33902;SDS011;20194;50.950;5.346;2023-04-24T09:01:18;9.80;;;6.60;;
33902;SDS011;20194;50.950;5.346;2023-04-24T09:03:46;19.25;;;7.05;;
33902;SDS011;20194;50.950;5.346;2023-04-24T09:06:14;20.83;;;6.43;;
33902;SDS011;20194;50.950;5.346;2023-04-24T09:08:42;16.63;;;6.22;;
33902;SDS011;20194;50.950;5.346;2023-04-24T09:11:10;13.80;;;5.55;;
33902;SDS011;20194;50.950;5.346;2023-04-24T09:13:36;14.82;;;6.15;;
33902;SDS011;20194;50.950;5.346;2023-04-24T09:16:03;14.55;;;6.30;;
33902;SDS011;20194;50.950;5.346;2023-04-24T09:18:28;15.70;;;5.18;;
33902;SDS011;20194;50.950;5.346;2023-04-24T09:21:01;18.02;;;4.90;;
33902;SDS011;20194;50.950;5.346;2023-04-24T09:23:29;16.98;;;5.32;;
33902;SDS011;20194;50.950;5.346;2023-04-24T09:25:56;9.77;;;3.58;;
33902;SDS011;20194;50.950;5.346;2023-04-24T09:28:26;13.27;;;3.97;;
33902;SDS011;20194;50.950;5.346;2023-04-24T09:31:07;21.90;;;7.18;;
33902;SDS011;20194;50.950;5.346;2023-04-24T09:33:34;17.35;;;5.30;;
33902;SDS011;20194;50.950;5.346;2023-04-24T09:36:01;16.05;;;5.50;;
33902;SDS011;20194;50.950;5.346;2023-04-24T09:38:31;14.43;;;5.00;;
33902;SDS011;20194;50.950;5.346;2023-04-24T09:41:07;17.25;;;5.90;;
33902;SDS011;20194;50.950;5.346;2023-04-24T09:43:33;16.40;;;6.53;;
33902;SDS011;20194;50.950;5.346;2023-04-24T09:46:04;21.05;;;6.07;;
33902;SDS011;20194;50.950;5.346;2023-04-24T09:48:37;18.80;;;7.10;;
33902;SDS011;20194;50.950;5.346;2023-04-24T09:51:03;22.42;;;6.88;;
33902;SDS011;20194;50.950;5.346;2023-04-24T09:53:32;14.05;;;5.47;;
33902;SDS011;20194;50.950;5.346;2023-04-24T09:56:10;14.48;;;5.40;;
33902;SDS011;20194;50.950;5.346;2023-04-24T09:58:38;18.75;;;7.03;;
33902;SDS011;20194;50.950;5.346;2023-04-24T10:01:04;20.27;;;6.05;;
33902;SDS011;20194;50.950;5.346;2023-04-24T10:03:30;18.13;;;6.15;;
33902;SDS011;20194;50.950;5.346;2023-04-24T10:06:01;17.70;;;5.90;;
33902;SDS011;20194;50.950;5.346;2023-04-24T10:08:35;17.10;;;6.75;;
33902;SDS011;20194;50.950;5.346;2023-04-24T10:13:28;16.88;;;5.88;;
33902;SDS011;20194;50.950;5.346;2023-04-24T10:15:54;15.57;;;6.65;;
33902;SDS011;20194;50.950;5.346;2023-04-24T10:18:21;19.70;;;6.05;;
33902;SDS011;20194;50.950;5.346;2023-04-24T10:20:47;14.52;;;5.85;;
33902;SDS011;20194;50.950;5.346;2023-04-24T10:23:13;16.42;;;6.35;;
33902;SDS011;20194;50.950;5.346;2023-04-24T10:25:39;16.55;;;6.50;;
33902;SDS011;20194;50.950;5.346;2023-04-24T10:28:05;17.27;;;6.60;;
33902;SDS011;20194;50.950;5.346;2023-04-24T10:30:32;18.95;;;5.65;;
33902;SDS011;20194;50.950;5.346;2023-04-24T10:33:00;19.85;;;6.47;;
33902;SDS011;20194;50.950;5.346;2023-04-24T10:35:26;22.58;;;7.07;;
33902;SDS011;20194;50.950;5.346;2023-04-24T10:38:02;16.17;;;6.80;;
33902;SDS011;20194;50.950;5.346;2023-04-24T10:40:33;13.65;;;6.43;;
33902;SDS011;20194;50.950;5.346;2023-04-24T10:43:03;17.27;;;6.75;;
33902;SDS011;20194;50.950;5.346;2023-04-24T10:45:33;21.58;;;6.80;;
33902;SDS011;20194;50.950;5.346;2023-04-24T10:50:27;16.30;;;8.15;;
33902;SDS011;20194;50.950;5.346;2023-04-24T10:53:04;23.25;;;7.78;;
33902;SDS011;20194;50.950;5.346;2023-04-24T10:55:48;18.20;;;6.63;;
33902;SDS011;20194;50.950;5.346;2023-04-24T10:58:15;18.02;;;7.50;;
33902;SDS011;20194;50.950;5.346;2023-04-24T11:00:56;20.98;;;7.97;;
33902;SDS011;20194;50.950;5.346;2023-04-24T11:03:28;15.73;;;6.20;;
33902;SDS011;20194;50.950;5.346;2023-04-24T11:05:56;18.90;;;6.40;;
33902;SDS011;20194;50.950;5.346;2023-04-24T11:08:37;13.20;;;6.05;;
33902;SDS011;20194;50.950;5.346;2023-04-24T11:11:11;18.77;;;6.15;;
33902;SDS011;20194;50.950;5.346;2023-04-24T11:21:42;20.85;;;7.15;;
33902;SDS011;20194;50.950;5.346;2023-04-24T11:26:57;16.67;;;6.88;;
33902;SDS011;20194;50.950;5.346;2023-04-24T11:32:18;13.68;;;5.93;;
33902;SDS011;20194;50.950;5.346;2023-04-24T11:37:34;20.13;;;6.50;;
33902;SDS011;20194;50.950;5.346;2023-04-24T11:40:01;21.42;;;6.55;;
33902;SDS011;20194;50.950;5.346;2023-04-24T11:42:29;14.73;;;6.50;;
33902;SDS011;20194;50.950;5.346;2023-04-24T11:47:32;12.77;;;5.22;;
33902;SDS011;20194;50.950;5.346;2023-04-24T11:49:59;13.70;;;4.82;;
33902;SDS011;20194;50.950;5.346;2023-04-24T11:52:28;10.35;;;5.20;;
33902;SDS011;20194;50.950;5.346;2023-04-24T11:54:55;12.82;;;5.00;;
33902;SDS011;20194;50.950;5.346;2023-04-24T11:57:21;10.25;;;5.03;;
33902;SDS011;20194;50.950;5.346;2023-04-24T11:59:51;9.40;;;5.00;;
33902;SDS011;20194;50.950;5.346;2023-04-24T12:02:20;14.40;;;5.28;;
33902;SDS011;20194;50.950;5.346;2023-04-24T12:04:50;13.32;;;5.03;;
33902;SDS011;20194;50.950;5.346;2023-04-24T12:07:17;13.77;;;5.38;;
33902;SDS011;20194;50.950;5.346;2023-04-24T12:09:46;11.00;;;5.13;;
33902;SDS011;20194;50.950;5.346;2023-04-24T12:12:13;9.63;;;4.25;;
33902;SDS011;20194;50.950;5.346;2023-04-24T12:14:48;11.88;;;5.00;;
33902;SDS011;20194;50.950;5.346;2023-04-24T12:19:48;12.30;;;4.82;;
33902;SDS011;20194;50.950;5.346;2023-04-24T12:22:15;10.18;;;4.65;;
33902;SDS011;20194;50.950;5.346;2023-04-24T12:27:32;14.20;;;4.22;;
33902;SDS011;20194;50.950;5.346;2023-04-24T12:29:59;9.65;;;4.10;;
33902;SDS011;20194;50.950;5.346;2023-04-24T12:32:25;9.98;;;4.25;;
33902;SDS011;20194;50.950;5.346;2023-04-24T12:34:52;22.38;;;4.45;;
33902;SDS011;20194;50.950;5.346;2023-04-24T12:37:18;12.93;;;4.32;;
33902;SDS011;20194;50.950;5.346;2023-04-24T12:39:58;12.23;;;4.57;;
33902;SDS011;20194;50.950;5.346;2023-04-24T12:42:26;11.02;;;4.40;;
33902;SDS011;20194;50.950;5.346;2023-04-24T12:44:56;11.75;;;4.43;;
33902;SDS011;20194;50.950;5.346;2023-04-24T12:47:26;13.63;;;4.57;;
33902;SDS011;20194;50.950;5.346;2023-04-24T12:49:53;7.68;;;4.07;;
33902;SDS011;20194;50.950;5.346;2023-04-24T12:52:20;12.55;;;4.63;;
33902;SDS011;20194;50.950;5.346;2023-04-24T12:54:47;10.77;;;4.13;;
33902;SDS011;20194;50.950;5.346;2023-04-24T12:57:13;7.75;;;3.17;;
33902;SDS011;20194;50.950;5.346;2023-04-24T12:59:39;11.18;;;4.25;;
33902;SDS011;20194;50.950;5.346;2023-04-24T13:02:04;9.70;;;3.25;;
33902;SDS011;20194;50.950;5.346;2023-04-24T13:04:31;9.00;;;3.47;;
33902;SDS011;20194;50.950;5.346;2023-04-24T13:06:57;10.35;;;3.58;;
33902;SDS011;20194;50.950;5.346;2023-04-24T13:09:23;11.52;;;4.18;;
33902;SDS011;20194;50.950;5.346;2023-04-24T13:11:49;9.43;;;3.92;;
33902;SDS011;20194;50.950;5.346;2023-04-24T13:14:15;11.75;;;4.20;;
33902;SDS011;20194;50.950;5.346;2023-04-24T13:16:41;12.85;;;4.03;;
33902;SDS011;20194;50.950;5.346;2023-04-24T13:19:06;13.48;;;4.50;;
33902;SDS011;20194;50.950;5.346;2023-04-24T13:21:32;7.72;;;3.92;;
33902;SDS011;20194;50.950;5.346;2023-04-24T13:23:58;6.53;;;3.72;;
33902;SDS011;20194;50.950;5.346;2023-04-24T13:26:24;9.90;;;3.88;;
33902;SDS011;20194;50.950;5.346;2023-04-24T13:28:50;8.82;;;4.55;;
33902;SDS011;20194;50.950;5.346;2023-04-24T13:31:16;8.38;;;3.63;;
33902;SDS011;20194;50.950;5.346;2023-04-24T13:33:42;6.65;;;3.85;;
33902;SDS011;20194;50.950;5.346;2023-04-24T13:36:07;8.75;;;4.00;;
33902;SDS011;20194;50.950;5.346;2023-04-24T13:38:33;9.85;;;4.45;;
33902;SDS011;20194;50.950;5.346;2023-04-24T13:40:59;8.98;;;4.63;;
33902;SDS011;20194;50.950;5.346;2023-04-24T13:43:25;13.10;;;4.43;;
33902;SDS011;20194;50.950;5.346;2023-04-24T13:45:51;9.20;;;3.95;;
33902;SDS011;20194;50.950;5.346;2023-04-24T13:48:17;12.20;;;4.22;;
33902;SDS011;20194;50.950;5.346;2023-04-24T13:50:43;7.18;;;3.75;;
33902;SDS011;20194;50.950;5.346;2023-04-24T13:53:09;6.78;;;3.60;;
33902;SDS011;20194;50.950;5.346;2023-04-24T13:55:35;6.32;;;3.70;;
33902;SDS011;20194;50.950;5.346;2023-04-24T13:58:01;11.55;;;4.03;;
33902;SDS011;20194;50.950;5.346;2023-04-24T14:00:27;9.18;;;3.90;;
33902;SDS011;20194;50.950;5.346;2023-04-24T14:02:53;5.93;;;3.75;;
33902;SDS011;20194;50.950;5.346;2023-04-24T14:05:19;8.70;;;3.65;;
33902;SDS011;20194;50.950;5.346;2023-04-24T14:07:47;7.57;;;2.90;;
33902;SDS011;20194;50.950;5.346;2023-04-24T14:10:13;9.55;;;3.33;;
33902;SDS011;20194;50.950;5.346;2023-04-24T14:12:38;12.52;;;3.40;;
33902;SDS011;20194;50.950;5.346;2023-04-24T14:15:04;7.50;;;3.65;;
33902;SDS011;20194;50.950;5.346;2023-04-24T14:17:30;9.18;;;3.50;;
33902;SDS011;20194;50.950;5.346;2023-04-24T14:19:56;8.80;;;4.07;;
33902;SDS011;20194;50.950;5.346;2023-04-24T14:22:24;6.35;;;3.55;;
33902;SDS011;20194;50.950;5.346;2023-04-24T14:24:50;13.50;;;4.10;;
33902;SDS011;20194;50.950;5.346;2023-04-24T14:27:16;9.40;;;3.60;;
33902;SDS011;20194;50.950;5.346;2023-04-24T14:29:41;8.02;;;3.75;;
33902;SDS011;20194;50.950;5.346;2023-04-24T14:32:07;10.98;;;4.25;;
33902;SDS011;20194;50.950;5.346;2023-04-24T14:34:34;6.30;;;3.13;;
33902;SDS011;20194;50.950;5.346;2023-04-24T14:36:59;8.90;;;2.92;;
33902;SDS011;20194;50.950;5.346;2023-04-24T14:39:25;7.32;;;3.13;;
33902;SDS011;20194;50.950;5.346;2023-04-24T14:41:51;10.60;;;3.92;;
33902;SDS011;20194;50.950;5.346;2023-04-24T14:44:17;5.30;;;2.97;;
33902;SDS011;20194;50.950;5.346;2023-04-24T14:46:42;10.60;;;3.17;;
33902;SDS011;20194;50.950;5.346;2023-04-24T14:49:09;13.68;;;4.00;;
33902;SDS011;20194;50.950;5.346;2023-04-24T14:51:36;6.10;;;3.00;;
33902;SDS011;20194;50.950;5.346;2023-04-24T14:54:02;6.00;;;3.42;;
33902;SDS011;20194;50.950;5.346;2023-04-24T14:56:28;6.93;;;2.63;;
33902;SDS011;20194;50.950;5.346;2023-04-24T14:58:53;7.22;;;2.92;;